Accueil
METAR-TAF:

METAR-TAF

Aéroports :

Rawlins Municipal Airport (Harvey Field)

Rawlins, Wyoming, États-Unis

latitude: 41-48-20N, longitude: 107-11-59W, altitude: 2077 m

Observation

Le bulletin a été fait il y a 20 minutes, à 00:53 UTC
Vent calme
Température -8°C
Humidité 79%
Pression 1030 hPa
Visibilité: 16.1 km
Ciel clair

METAR: KRWL 120053Z AUTO 00000KT 10SM CLR M08/M11 A3041 RMK AO2 SLP401 T10781111

Heure: 18:13 (01:13 UTC)

Prévision

Le bulletin a été fait il y a 1 heure et 53 minutes, à 23:20 UTC
Prévision valable du 12 à 00 UTC au 12 à 24 UTC
Vent 10 kt de sud-ouest
Visibilité: 10 km
Ciel clair
A partir de 12 à 1400 UTC
Vent 20 kt de ouest/sud-ouest avec des rafales jusqu'à 30 kt
Visibilité: 10 km
Nuages épars à une hauteur de 25000 ft

TAF: KRWL 112320Z 1200/1224 23010KT P6SM SKC FM121400 24020G30KT P6SM SCT250

Observations et prévisions météorologiques de plus de 4000 aéroports (messages METAR et TAF).

Les stations disponibles sont représentées par des disques jaunes et rouges sur la carte.

Passer la souris dessus pour voir le nom de la station.

Cliquer dessus pour voir les observations et prévisions météorologiques.

Pour changer de carte: cliquez sur les boutons verts avec une croix noire pour zoomer, sur le bouton vert avec un tiret pour effectuer un zoom arrière, ou sur les flèches vertes pour les cartes adjacentes.


METAR-TAF: